sensor_id;sensor_type;location;lat;lon;timestamp;P1;durP1;ratioP1;P2;durP2;ratioP2
67965;SDS011;54749;47.850;9.002;2023-03-12T00:01:09;13.07;;;5.97;;
67965;SDS011;54749;47.850;9.002;2023-03-12T00:03:40;12.63;;;5.90;;
67965;SDS011;54749;47.850;9.002;2023-03-12T00:06:07;16.10;;;7.13;;
67965;SDS011;54749;47.850;9.002;2023-03-12T00:08:37;14.00;;;6.13;;
67965;SDS011;54749;47.850;9.002;2023-03-12T00:11:05;13.35;;;5.97;;
67965;SDS011;54749;47.850;9.002;2023-03-12T00:13:33;11.35;;;5.03;;
67965;SDS011;54749;47.850;9.002;2023-03-12T00:16:04;14.60;;;5.22;;
67965;SDS011;54749;47.850;9.002;2023-03-12T00:18:33;10.43;;;4.40;;
67965;SDS011;54749;47.850;9.002;2023-03-12T00:21:00;12.55;;;5.45;;
67965;SDS011;54749;47.850;9.002;2023-03-12T00:23:27;12.07;;;5.40;;
67965;SDS011;54749;47.850;9.002;2023-03-12T00:25:58;14.30;;;6.28;;
67965;SDS011;54749;47.850;9.002;2023-03-12T00:28:27;13.65;;;5.95;;
67965;SDS011;54749;47.850;9.002;2023-03-12T00:30:53;17.17;;;6.83;;
67965;SDS011;54749;47.850;9.002;2023-03-12T00:33:23;13.32;;;5.60;;
67965;SDS011;54749;47.850;9.002;2023-03-12T00:35:51;12.50;;;5.45;;
67965;SDS011;54749;47.850;9.002;2023-03-12T00:38:19;11.65;;;5.78;;
67965;SDS011;54749;47.850;9.002;2023-03-12T00:40:47;10.50;;;4.75;;
67965;SDS011;54749;47.850;9.002;2023-03-12T00:43:14;9.63;;;4.13;;
67965;SDS011;54749;47.850;9.002;2023-03-12T00:45:41;12.15;;;4.75;;
67965;SDS011;54749;47.850;9.002;2023-03-12T00:48:08;12.40;;;4.82;;
67965;SDS011;54749;47.850;9.002;2023-03-12T00:50:35;13.68;;;6.40;;
67965;SDS011;54749;47.850;9.002;2023-03-12T00:53:02;13.02;;;5.95;;
67965;SDS011;54749;47.850;9.002;2023-03-12T00:55:29;13.30;;;6.30;;
67965;SDS011;54749;47.850;9.002;2023-03-12T00:57:56;10.63;;;5.13;;
67965;SDS011;54749;47.850;9.002;2023-03-12T01:00:23;11.10;;;4.93;;
67965;SDS011;54749;47.850;9.002;2023-03-12T01:02:50;11.98;;;5.47;;
67965;SDS011;54749;47.850;9.002;2023-03-12T01:05:17;12.63;;;5.32;;
67965;SDS011;54749;47.850;9.002;2023-03-12T01:07:46;9.10;;;4.43;;
67965;SDS011;54749;47.850;9.002;2023-03-12T01:10:14;9.52;;;4.20;;
67965;SDS011;54749;47.850;9.002;2023-03-12T01:12:44;11.32;;;4.82;;
67965;SDS011;54749;47.850;9.002;2023-03-12T01:15:13;13.50;;;5.18;;
67965;SDS011;54749;47.850;9.002;2023-03-12T01:17:42;13.95;;;7.00;;
67965;SDS011;54749;47.850;9.002;2023-03-12T01:20:09;12.00;;;5.60;;
67965;SDS011;54749;47.850;9.002;2023-03-12T01:22:37;12.60;;;5.35;;
67965;SDS011;54749;47.850;9.002;2023-03-12T01:25:04;11.70;;;5.10;;
67965;SDS011;54749;47.850;9.002;2023-03-12T01:27:32;11.25;;;4.80;;
67965;SDS011;54749;47.850;9.002;2023-03-12T01:29:59;11.10;;;4.53;;
67965;SDS011;54749;47.850;9.002;2023-03-12T01:32:26;9.53;;;4.40;;
67965;SDS011;54749;47.850;9.002;2023-03-12T01:34:53;11.35;;;5.07;;
67965;SDS011;54749;47.850;9.002;2023-03-12T01:37:20;12.48;;;4.57;;
67965;SDS011;54749;47.850;9.002;2023-03-12T01:39:47;11.15;;;5.13;;
67965;SDS011;54749;47.850;9.002;2023-03-12T01:42:14;11.85;;;5.13;;
67965;SDS011;54749;47.850;9.002;2023-03-12T01:44:52;11.60;;;5.00;;
67965;SDS011;54749;47.850;9.002;2023-03-12T01:47:21;11.35;;;4.88;;
67965;SDS011;54749;47.850;9.002;2023-03-12T01:49:49;10.85;;;4.57;;
67965;SDS011;54749;47.850;9.002;2023-03-12T01:55:00;10.80;;;5.07;;
67965;SDS011;54749;47.850;9.002;2023-03-12T01:57:36;10.90;;;4.97;;
67965;SDS011;54749;47.850;9.002;2023-03-12T02:00:08;14.55;;;6.38;;
67965;SDS011;54749;47.850;9.002;2023-03-12T02:02:47;15.75;;;7.35;;
67965;SDS011;54749;47.850;9.002;2023-03-12T02:05:23;16.30;;;7.43;;
67965;SDS011;54749;47.850;9.002;2023-03-12T02:07:54;15.32;;;7.35;;
67965;SDS011;54749;47.850;9.002;2023-03-12T02:10:22;18.17;;;7.27;;
67965;SDS011;54749;47.850;9.002;2023-03-12T02:12:51;16.48;;;6.68;;
67965;SDS011;54749;47.850;9.002;2023-03-12T02:15:18;17.33;;;7.60;;
67965;SDS011;54749;47.850;9.002;2023-03-12T02:17:46;14.30;;;6.03;;
67965;SDS011;54749;47.850;9.002;2023-03-12T02:20:14;16.88;;;6.68;;
67965;SDS011;54749;47.850;9.002;2023-03-12T02:22:50;12.50;;;5.87;;
67965;SDS011;54749;47.850;9.002;2023-03-12T02:25:34;13.68;;;6.25;;
67965;SDS011;54749;47.850;9.002;2023-03-12T02:28:09;13.32;;;5.82;;
67965;SDS011;54749;47.850;9.002;2023-03-12T02:30:41;12.02;;;5.55;;
67965;SDS011;54749;47.850;9.002;2023-03-12T02:33:11;12.23;;;5.60;;
67965;SDS011;54749;47.850;9.002;2023-03-12T02:35:41;14.03;;;5.90;;
67965;SDS011;54749;47.850;9.002;2023-03-12T02:43:49;13.68;;;6.00;;
67965;SDS011;54749;47.850;9.002;2023-03-12T02:46:39;14.55;;;5.90;;
67965;SDS011;54749;47.850;9.002;2023-03-12T02:49:11;12.70;;;5.40;;
67965;SDS011;54749;47.850;9.002;2023-03-12T02:51:39;14.43;;;5.70;;
67965;SDS011;54749;47.850;9.002;2023-03-12T02:54:08;11.82;;;5.53;;
67965;SDS011;54749;47.850;9.002;2023-03-12T02:56:35;14.82;;;6.00;;
67965;SDS011;54749;47.850;9.002;2023-03-12T02:59:02;13.98;;;6.15;;
67965;SDS011;54749;47.850;9.002;2023-03-12T03:01:32;13.67;;;5.97;;
67965;SDS011;54749;47.850;9.002;2023-03-12T03:04:01;13.82;;;6.15;;
67965;SDS011;54749;47.850;9.002;2023-03-12T03:06:29;11.77;;;5.45;;
67965;SDS011;54749;47.850;9.002;2023-03-12T03:08:57;11.57;;;5.13;;
67965;SDS011;54749;47.850;9.002;2023-03-12T03:11:25;12.90;;;5.53;;
67965;SDS011;54749;47.850;9.002;2023-03-12T03:13:54;11.07;;;4.87;;
67965;SDS011;54749;47.850;9.002;2023-03-12T03:16:22;16.05;;;6.93;;
67965;SDS011;54749;47.850;9.002;2023-03-12T03:18:50;14.00;;;6.25;;
67965;SDS011;54749;47.850;9.002;2023-03-12T03:21:17;16.20;;;6.68;;
67965;SDS011;54749;47.850;9.002;2023-03-12T03:23:45;14.70;;;6.78;;
67965;SDS011;54749;47.850;9.002;2023-03-12T03:26:14;12.97;;;5.80;;
67965;SDS011;54749;47.850;9.002;2023-03-12T03:28:44;13.25;;;6.20;;
67965;SDS011;54749;47.850;9.002;2023-03-12T03:31:12;18.02;;;8.13;;
67965;SDS011;54749;47.850;9.002;2023-03-12T03:33:40;22.58;;;9.02;;
67965;SDS011;54749;47.850;9.002;2023-03-12T03:36:09;17.77;;;7.05;;
67965;SDS011;54749;47.850;9.002;2023-03-12T03:38:46;16.67;;;6.87;;
67965;SDS011;54749;47.850;9.002;2023-03-12T03:41:16;15.00;;;5.75;;
67965;SDS011;54749;47.850;9.002;2023-03-12T03:43:45;15.75;;;6.07;;
67965;SDS011;54749;47.850;9.002;2023-03-12T03:46:14;13.70;;;6.00;;
67965;SDS011;54749;47.850;9.002;2023-03-12T03:48:46;14.15;;;5.75;;
67965;SDS011;54749;47.850;9.002;2023-03-12T03:51:14;14.87;;;6.13;;
67965;SDS011;54749;47.850;9.002;2023-03-12T03:53:44;15.27;;;6.35;;
67965;SDS011;54749;47.850;9.002;2023-03-12T03:56:13;13.38;;;5.68;;
67965;SDS011;54749;47.850;9.002;2023-03-12T03:58:45;14.82;;;6.50;;
67965;SDS011;54749;47.850;9.002;2023-03-12T04:01:14;14.82;;;6.63;;
67965;SDS011;54749;47.850;9.002;2023-03-12T04:03:44;15.90;;;6.60;;
67965;SDS011;54749;47.850;9.002;2023-03-12T04:06:11;15.35;;;6.70;;
67965;SDS011;54749;47.850;9.002;2023-03-12T04:08:39;14.55;;;5.85;;
67965;SDS011;54749;47.850;9.002;2023-03-12T04:11:13;14.88;;;6.35;;
67965;SDS011;54749;47.850;9.002;2023-03-12T04:13:43;15.90;;;5.97;;
67965;SDS011;54749;47.850;9.002;2023-03-12T04:16:12;15.80;;;6.67;;
67965;SDS011;54749;47.850;9.002;2023-03-12T04:18:40;22.27;;;8.95;;
67965;SDS011;54749;47.850;9.002;2023-03-12T04:21:08;18.35;;;7.35;;
67965;SDS011;54749;47.850;9.002;2023-03-12T04:23:36;22.50;;;8.23;;
67965;SDS011;54749;47.850;9.002;2023-03-12T04:26:05;20.75;;;8.95;;
67965;SDS011;54749;47.850;9.002;2023-03-12T04:28:34;21.23;;;8.17;;
67965;SDS011;54749;47.850;9.002;2023-03-12T04:31:03;18.55;;;8.02;;
67965;SDS011;54749;47.850;9.002;2023-03-12T04:33:43;23.90;;;9.18;;
67965;SDS011;54749;47.850;9.002;2023-03-12T04:36:10;27.75;;;11.13;;
67965;SDS011;54749;47.850;9.002;2023-03-12T04:38:42;37.55;;;13.45;;
67965;SDS011;54749;47.850;9.002;2023-03-12T04:41:10;33.03;;;11.90;;
67965;SDS011;54749;47.850;9.002;2023-03-12T04:43:46;25.77;;;10.10;;
67965;SDS011;54749;47.850;9.002;2023-03-12T04:46:14;20.02;;;8.02;;
67965;SDS011;54749;47.850;9.002;2023-03-12T04:48:42;21.08;;;8.68;;
67965;SDS011;54749;47.850;9.002;2023-03-12T04:51:10;22.05;;;8.68;;
67965;SDS011;54749;47.850;9.002;2023-03-12T04:53:38;20.43;;;8.07;;
67965;SDS011;54749;47.850;9.002;2023-03-12T04:56:08;17.83;;;7.28;;
67965;SDS011;54749;47.850;9.002;2023-03-12T04:58:36;20.10;;;8.40;;
67965;SDS011;54749;47.850;9.002;2023-03-12T05:01:03;17.85;;;7.25;;
67965;SDS011;54749;47.850;9.002;2023-03-12T05:03:31;18.45;;;6.85;;
67965;SDS011;54749;47.850;9.002;2023-03-12T05:05:59;19.83;;;7.50;;
67965;SDS011;54749;47.850;9.002;2023-03-12T05:08:26;16.30;;;6.93;;
67965;SDS011;54749;47.850;9.002;2023-03-12T05:10:53;13.45;;;6.10;;
67965;SDS011;54749;47.850;9.002;2023-03-12T05:13:21;16.05;;;6.82;;
67965;SDS011;54749;47.850;9.002;2023-03-12T05:15:51;14.75;;;5.68;;
67965;SDS011;54749;47.850;9.002;2023-03-12T05:18:19;17.67;;;7.27;;
67965;SDS011;54749;47.850;9.002;2023-03-12T05:20:56;22.38;;;9.80;;
67965;SDS011;54749;47.850;9.002;2023-03-12T05:23:31;18.20;;;8.43;;
67965;SDS011;54749;47.850;9.002;2023-03-12T05:25:59;18.92;;;8.05;;
67965;SDS011;54749;47.850;9.002;2023-03-12T05:28:27;18.75;;;7.63;;
67965;SDS011;54749;47.850;9.002;2023-03-12T05:30:58;17.23;;;6.80;;
67965;SDS011;54749;47.850;9.002;2023-03-12T05:33:28;17.25;;;7.07;;
67965;SDS011;54749;47.850;9.002;2023-03-12T05:35:57;15.75;;;6.57;;
67965;SDS011;54749;47.850;9.002;2023-03-12T05:38:25;15.27;;;6.03;;
67965;SDS011;54749;47.850;9.002;2023-03-12T05:40:52;14.35;;;6.03;;
67965;SDS011;54749;47.850;9.002;2023-03-12T05:43:21;16.33;;;6.30;;
67965;SDS011;54749;47.850;9.002;2023-03-12T05:45:49;21.08;;;9.00;;
67965;SDS011;54749;47.850;9.002;2023-03-12T05:48:18;16.85;;;7.35;;
67965;SDS011;54749;47.850;9.002;2023-03-12T05:50:47;15.35;;;6.85;;
67965;SDS011;54749;47.850;9.002;2023-03-12T05:53:14;17.83;;;7.55;;
67965;SDS011;54749;47.850;9.002;2023-03-12T05:55:42;18.87;;;7.67;;
67965;SDS011;54749;47.850;9.002;2023-03-12T05:58:09;14.95;;;5.90;;
67965;SDS011;54749;47.850;9.002;2023-03-12T06:00:41;16.48;;;7.00;;
67965;SDS011;54749;47.850;9.002;2023-03-12T06:03:12;16.55;;;7.30;;
67965;SDS011;54749;47.850;9.002;2023-03-12T06:05:40;15.32;;;6.95;;
67965;SDS011;54749;47.850;9.002;2023-03-12T06:08:10;17.07;;;6.73;;
67965;SDS011;54749;47.850;9.002;2023-03-12T06:10:37;17.50;;;6.97;;
67965;SDS011;54749;47.850;9.002;2023-03-12T06:13:05;17.20;;;6.72;;
67965;SDS011;54749;47.850;9.002;2023-03-12T06:15:33;17.30;;;7.28;;
67965;SDS011;54749;47.850;9.002;2023-03-12T06:18:02;20.13;;;8.23;;
67965;SDS011;54749;47.850;9.002;2023-03-12T06:20:30;20.30;;;8.97;;
67965;SDS011;54749;47.850;9.002;2023-03-12T06:22:57;19.35;;;8.30;;
67965;SDS011;54749;47.850;9.002;2023-03-12T06:25:24;23.42;;;10.20;;
67965;SDS011;54749;47.850;9.002;2023-03-12T06:27:51;22.05;;;8.43;;
67965;SDS011;54749;47.850;9.002;2023-03-12T06:30:18;29.35;;;11.48;;
67965;SDS011;54749;47.850;9.002;2023-03-12T06:32:46;27.97;;;9.43;;
67965;SDS011;54749;47.850;9.002;2023-03-12T06:35:12;20.67;;;8.77;;
67965;SDS011;54749;47.850;9.002;2023-03-12T06:37:40;23.88;;;9.57;;
67965;SDS011;54749;47.850;9.002;2023-03-12T06:40:07;18.98;;;8.15;;
67965;SDS011;54749;47.850;9.002;2023-03-12T06:42:36;23.45;;;10.07;;
67965;SDS011;54749;47.850;9.002;2023-03-12T06:45:03;25.50;;;10.30;;
67965;SDS011;54749;47.850;9.002;2023-03-12T06:47:31;23.60;;;9.02;;
67965;SDS011;54749;47.850;9.002;2023-03-12T06:49:58;25.10;;;9.35;;
67965;SDS011;54749;47.850;9.002;2023-03-12T06:52:25;27.23;;;11.15;;
67965;SDS011;54749;47.850;9.002;2023-03-12T06:54:52;21.88;;;9.25;;
67965;SDS011;54749;47.850;9.002;2023-03-12T06:57:19;24.47;;;10.47;;
67965;SDS011;54749;47.850;9.002;2023-03-12T06:59:46;23.65;;;9.25;;
67965;SDS011;54749;47.850;9.002;2023-03-12T07:02:16;24.88;;;9.63;;
67965;SDS011;54749;47.850;9.002;2023-03-12T07:04:43;28.70;;;10.32;;
67965;SDS011;54749;47.850;9.002;2023-03-12T07:07:10;28.10;;;13.20;;
67965;SDS011;54749;47.850;9.002;2023-03-12T07:09:37;21.97;;;9.77;;
67965;SDS011;54749;47.850;9.002;2023-03-12T07:12:04;27.10;;;11.32;;
67965;SDS011;54749;47.850;9.002;2023-03-12T07:14:31;28.83;;;11.45;;
67965;SDS011;54749;47.850;9.002;2023-03-12T07:16:58;26.15;;;11.25;;
67965;SDS011;54749;47.850;9.002;2023-03-12T07:19:27;26.35;;;11.10;;
67965;SDS011;54749;47.850;9.002;2023-03-12T07:21:56;21.87;;;8.50;;
67965;SDS011;54749;47.850;9.002;2023-03-12T07:24:22;19.55;;;8.75;;
67965;SDS011;54749;47.850;9.002;2023-03-12T07:26:50;20.23;;;8.60;;
67965;SDS011;54749;47.850;9.002;2023-03-12T07:29:16;24.13;;;10.48;;
67965;SDS011;54749;47.850;9.002;2023-03-12T07:31:43;25.58;;;9.40;;
67965;SDS011;54749;47.850;9.002;2023-03-12T07:34:10;26.03;;;11.20;;
67965;SDS011;54749;47.850;9.002;2023-03-12T07:36:38;22.08;;;9.68;;
67965;SDS011;54749;47.850;9.002;2023-03-12T07:39:05;24.67;;;10.55;;
67965;SDS011;54749;47.850;9.002;2023-03-12T07:41:32;28.25;;;11.10;;
67965;SDS011;54749;47.850;9.002;2023-03-12T07:44:00;41.13;;;14.77;;
67965;SDS011;54749;47.850;9.002;2023-03-12T07:46:27;25.03;;;9.50;;
67965;SDS011;54749;47.850;9.002;2023-03-12T07:48:54;29.85;;;11.15;;
67965;SDS011;54749;47.850;9.002;2023-03-12T07:51:22;27.65;;;11.82;;
67965;SDS011;54749;47.850;9.002;2023-03-12T07:53:48;21.23;;;9.20;;
67965;SDS011;54749;47.850;9.002;2023-03-12T07:56:16;26.27;;;10.10;;
67965;SDS011;54749;47.850;9.002;2023-03-12T07:58:43;24.93;;;10.57;;
67965;SDS011;54749;47.850;9.002;2023-03-12T08:01:10;22.88;;;10.10;;
67965;SDS011;54749;47.850;9.002;2023-03-12T08:03:37;27.83;;;11.60;;
67965;SDS011;54749;47.850;9.002;2023-03-12T08:06:05;24.20;;;10.20;;
67965;SDS011;54749;47.850;9.002;2023-03-12T08:08:32;27.27;;;11.63;;
67965;SDS011;54749;47.850;9.002;2023-03-12T08:11:02;22.37;;;9.47;;
67965;SDS011;54749;47.850;9.002;2023-03-12T08:13:30;22.85;;;9.95;;
67965;SDS011;54749;47.850;9.002;2023-03-12T08:15:57;23.80;;;9.55;;
67965;SDS011;54749;47.850;9.002;2023-03-12T08:18:24;22.52;;;9.35;;
67965;SDS011;54749;47.850;9.002;2023-03-12T08:20:52;22.05;;;9.90;;
67965;SDS011;54749;47.850;9.002;2023-03-12T08:23:20;30.33;;;11.60;;
67965;SDS011;54749;47.850;9.002;2023-03-12T08:25:48;32.63;;;13.35;;
67965;SDS011;54749;47.850;9.002;2023-03-12T08:28:15;26.65;;;12.38;;
67965;SDS011;54749;47.850;9.002;2023-03-12T08:31:01;38.53;;;18.42;;
67965;SDS011;54749;47.850;9.002;2023-03-12T08:33:28;32.78;;;13.85;;
67965;SDS011;54749;47.850;9.002;2023-03-12T08:35:55;29.40;;;12.57;;
67965;SDS011;54749;47.850;9.002;2023-03-12T08:38:22;27.85;;;11.60;;
67965;SDS011;54749;47.850;9.002;2023-03-12T08:40:58;35.72;;;18.02;;
67965;SDS011;54749;47.850;9.002;2023-03-12T08:43:26;43.13;;;21.67;;
67965;SDS011;54749;47.850;9.002;2023-03-12T08:45:59;62.17;;;32.75;;
67965;SDS011;54749;47.850;9.002;2023-03-12T08:48:27;39.70;;;21.40;;
67965;SDS011;54749;47.850;9.002;2023-03-12T08:50:56;49.13;;;26.42;;
67965;SDS011;54749;47.850;9.002;2023-03-12T08:53:24;35.53;;;18.40;;
67965;SDS011;54749;47.850;9.002;2023-03-12T08:55:53;38.70;;;20.02;;
67965;SDS011;54749;47.850;9.002;2023-03-12T08:58:20;28.38;;;15.05;;
67965;SDS011;54749;47.850;9.002;2023-03-12T09:00:48;28.40;;;14.67;;
67965;SDS011;54749;47.850;9.002;2023-03-12T09:03:15;24.17;;;11.57;;
67965;SDS011;54749;47.850;9.002;2023-03-12T09:05:42;24.60;;;12.15;;
67965;SDS011;54749;47.850;9.002;2023-03-12T09:08:10;38.08;;;20.50;;
67965;SDS011;54749;47.850;9.002;2023-03-12T09:10:38;37.28;;;21.55;;
67965;SDS011;54749;47.850;9.002;2023-03-12T09:13:05;26.07;;;14.47;;
67965;SDS011;54749;47.850;9.002;2023-03-12T09:15:32;23.50;;;10.60;;
67965;SDS011;54749;47.850;9.002;2023-03-12T09:17:59;21.88;;;11.52;;
67965;SDS011;54749;47.850;9.002;2023-03-12T09:20:26;23.60;;;11.05;;
67965;SDS011;54749;47.850;9.002;2023-03-12T09:22:53;19.17;;;9.82;;
67965;SDS011;54749;47.850;9.002;2023-03-12T09:25:20;18.87;;;8.70;;
67965;SDS011;54749;47.850;9.002;2023-03-12T09:27:48;18.63;;;9.07;;
67965;SDS011;54749;47.850;9.002;2023-03-12T09:30:17;25.75;;;12.50;;
67965;SDS011;54749;47.850;9.002;2023-03-12T09:32:46;24.48;;;12.38;;
67965;SDS011;54749;47.850;9.002;2023-03-12T09:35:14;19.83;;;9.52;;
67965;SDS011;54749;47.850;9.002;2023-03-12T09:37:41;24.93;;;10.57;;
67965;SDS011;54749;47.850;9.002;2023-03-12T09:40:11;32.70;;;15.45;;
67965;SDS011;54749;47.850;9.002;2023-03-12T09:42:44;21.77;;;11.13;;
67965;SDS011;54749;47.850;9.002;2023-03-12T09:45:22;21.38;;;9.88;;
67965;SDS011;54749;47.850;9.002;2023-03-12T09:47:52;17.98;;;9.02;;
67965;SDS011;54749;47.850;9.002;2023-03-12T09:52:56;20.92;;;10.05;;
67965;SDS011;54749;47.850;9.002;2023-03-12T09:55:41;19.13;;;9.00;;
67965;SDS011;54749;47.850;9.002;2023-03-12T09:58:33;16.55;;;8.32;;
67965;SDS011;54749;47.850;9.002;2023-03-12T10:01:05;14.40;;;7.47;;
67965;SDS011;54749;47.850;9.002;2023-03-12T10:06:29;18.98;;;10.00;;
67965;SDS011;54749;47.850;9.002;2023-03-12T10:23:08;14.52;;;7.30;;
67965;SDS011;54749;47.850;9.002;2023-03-12T10:25:44;12.30;;;6.03;;
67965;SDS011;54749;47.850;9.002;2023-03-12T10:28:21;12.38;;;6.32;;
67965;SDS011;54749;47.850;9.002;2023-03-12T10:30:56;11.23;;;5.67;;
67965;SDS011;54749;47.850;9.002;2023-03-12T10:33:49;17.50;;;8.30;;
67965;SDS011;54749;47.850;9.002;2023-03-12T10:36:18;17.33;;;8.80;;
67965;SDS011;54749;47.850;9.002;2023-03-12T10:38:48;17.08;;;7.30;;
67965;SDS011;54749;47.850;9.002;2023-03-12T10:41:19;14.60;;;7.15;;
67965;SDS011;54749;47.850;9.002;2023-03-12T10:43:48;11.17;;;6.33;;
67965;SDS011;54749;47.850;9.002;2023-03-12T10:52:02;23.33;;;13.05;;
67965;SDS011;54749;47.850;9.002;2023-03-12T10:54:32;69.97;;;35.53;;
67965;SDS011;54749;47.850;9.002;2023-03-12T10:57:01;27.93;;;13.17;;
67965;SDS011;54749;47.850;9.002;2023-03-12T10:59:35;15.13;;;8.30;;
67965;SDS011;54749;47.850;9.002;2023-03-12T11:04:54;21.35;;;13.27;;
67965;SDS011;54749;47.850;9.002;2023-03-12T11:07:32;18.23;;;9.70;;
67965;SDS011;54749;47.850;9.002;2023-03-12T11:12:34;29.52;;;23.08;;
67965;SDS011;54749;47.850;9.002;2023-03-12T11:20:47;9.88;;;6.30;;
67965;SDS011;54749;47.850;9.002;2023-03-12T11:23:20;9.60;;;6.60;;
67965;SDS011;54749;47.850;9.002;2023-03-12T11:25:58;9.38;;;5.88;;
67965;SDS011;54749;47.850;9.002;2023-03-12T11:28:34;13.05;;;7.85;;
67965;SDS011;54749;47.850;9.002;2023-03-12T11:31:04;27.25;;;13.57;;
67965;SDS011;54749;47.850;9.002;2023-03-12T11:33:36;34.88;;;16.48;;
67965;SDS011;54749;47.850;9.002;2023-03-12T11:36:15;25.33;;;13.73;;
67965;SDS011;54749;47.850;9.002;2023-03-12T11:47:24;9.60;;;5.57;;
67965;SDS011;54749;47.850;9.002;2023-03-12T11:50:31;10.13;;;4.47;;
67965;SDS011;54749;47.850;9.002;2023-03-12T11:53:20;13.13;;;6.05;;
67965;SDS011;54749;47.850;9.002;2023-03-12T11:55:52;18.77;;;6.60;;
67965;SDS011;54749;47.850;9.002;2023-03-12T12:13:36;8.15;;;4.28;;
67965;SDS011;54749;47.850;9.002;2023-03-12T12:35:28;6.13;;;3.10;;
67965;SDS011;54749;47.850;9.002;2023-03-12T12:38:06;9.10;;;4.78;;
67965;SDS011;54749;47.850;9.002;2023-03-12T12:40:43;8.35;;;4.10;;
67965;SDS011;54749;47.850;9.002;2023-03-12T12:45:57;13.20;;;7.17;;
67965;SDS011;54749;47.850;9.002;2023-03-12T12:51:03;21.27;;;9.20;;
67965;SDS011;54749;47.850;9.002;2023-03-12T12:53:36;31.13;;;17.60;;
67965;SDS011;54749;47.850;9.002;2023-03-12T13:01:17;12.25;;;8.73;;
67965;SDS011;54749;47.850;9.002;2023-03-12T13:03:45;10.85;;;6.93;;
67965;SDS011;54749;47.850;9.002;2023-03-12T13:06:13;8.52;;;4.65;;
67965;SDS011;54749;47.850;9.002;2023-03-12T13:13:50;4.25;;;1.92;;
67965;SDS011;54749;47.850;9.002;2023-03-12T13:16:38;4.68;;;2.00;;
67965;SDS011;54749;47.850;9.002;2023-03-12T13:31:55;9.05;;;4.70;;
67965;SDS011;54749;47.850;9.002;2023-03-12T13:36:56;7.50;;;2.03;;
67965;SDS011;54749;47.850;9.002;2023-03-12T13:45:20;6.60;;;1.73;;
67965;SDS011;54749;47.850;9.002;2023-03-12T13:47:48;6.05;;;1.90;;
67965;SDS011;54749;47.850;9.002;2023-03-12T13:50:21;5.53;;;2.30;;
67965;SDS011;54749;47.850;9.002;2023-03-12T13:52:59;7.18;;;1.95;;
67965;SDS011;54749;47.850;9.002;2023-03-12T13:55:33;7.07;;;1.88;;
67965;SDS011;54749;47.850;9.002;2023-03-12T14:00:49;4.88;;;1.60;;
67965;SDS011;54749;47.850;9.002;2023-03-12T14:06:05;8.32;;;1.80;;
67965;SDS011;54749;47.850;9.002;2023-03-12T14:11:40;7.63;;;2.97;;
67965;SDS011;54749;47.850;9.002;2023-03-12T14:14:35;7.45;;;1.80;;
67965;SDS011;54749;47.850;9.002;2023-03-12T14:19:59;11.55;;;5.78;;
67965;SDS011;54749;47.850;9.002;2023-03-12T14:22:37;9.63;;;4.57;;
67965;SDS011;54749;47.850;9.002;2023-03-12T14:28:01;7.70;;;2.50;;
67965;SDS011;54749;47.850;9.002;2023-03-12T14:33:26;6.85;;;2.17;;
67965;SDS011;54749;47.850;9.002;2023-03-12T14:36:11;7.50;;;2.33;;
67965;SDS011;54749;47.850;9.002;2023-03-12T14:38:43;11.05;;;3.58;;
67965;SDS011;54749;47.850;9.002;2023-03-12T14:41:13;15.82;;;3.95;;
67965;SDS011;54749;47.850;9.002;2023-03-12T14:43:44;11.90;;;3.03;;
67965;SDS011;54749;47.850;9.002;2023-03-12T14:46:13;10.00;;;3.20;;
67965;SDS011;54749;47.850;9.002;2023-03-12T14:48:52;13.35;;;4.68;;
67965;SDS011;54749;47.850;9.002;2023-03-12T14:51:24;12.68;;;5.35;;
67965;SDS011;54749;47.850;9.002;2023-03-12T14:53:57;12.68;;;4.13;;
67965;SDS011;54749;47.850;9.002;2023-03-12T14:56:29;11.93;;;3.30;;
67965;SDS011;54749;47.850;9.002;2023-03-12T14:59:00;12.75;;;4.70;;
67965;SDS011;54749;47.850;9.002;2023-03-12T15:01:44;13.00;;;5.63;;
67965;SDS011;54749;47.850;9.002;2023-03-12T15:04:16;9.30;;;2.97;;
67965;SDS011;54749;47.850;9.002;2023-03-12T15:06:53;10.88;;;4.60;;
67965;SDS011;54749;47.850;9.002;2023-03-12T15:09:26;8.13;;;2.33;;
67965;SDS011;54749;47.850;9.002;2023-03-12T15:11:55;8.98;;;3.20;;
67965;SDS011;54749;47.850;9.002;2023-03-12T15:14:25;12.50;;;4.70;;
67965;SDS011;54749;47.850;9.002;2023-03-12T15:16:54;10.07;;;3.03;;
67965;SDS011;54749;47.850;9.002;2023-03-12T15:19:26;9.73;;;3.88;;
67965;SDS011;54749;47.850;9.002;2023-03-12T15:21:58;8.27;;;2.37;;
67965;SDS011;54749;47.850;9.002;2023-03-12T15:24:26;10.65;;;2.50;;
67965;SDS011;54749;47.850;9.002;2023-03-12T15:26:55;7.55;;;2.58;;
67965;SDS011;54749;47.850;9.002;2023-03-12T15:29:27;5.85;;;2.03;;
67965;SDS011;54749;47.850;9.002;2023-03-12T15:31:56;7.13;;;2.20;;
67965;SDS011;54749;47.850;9.002;2023-03-12T15:34:33;6.60;;;1.97;;
67965;SDS011;54749;47.850;9.002;2023-03-12T15:37:23;7.55;;;1.67;;
67965;SDS011;54749;47.850;9.002;2023-03-12T15:39:55;6.75;;;2.13;;
67965;SDS011;54749;47.850;9.002;2023-03-12T15:42:23;8.45;;;2.83;;
67965;SDS011;54749;47.850;9.002;2023-03-12T15:44:53;9.65;;;2.38;;
67965;SDS011;54749;47.850;9.002;2023-03-12T15:47:23;6.03;;;1.80;;
67965;SDS011;54749;47.850;9.002;2023-03-12T15:49:56;8.45;;;1.60;;
67965;SDS011;54749;47.850;9.002;2023-03-12T15:52:30;7.30;;;1.42;;
67965;SDS011;54749;47.850;9.002;2023-03-12T15:57:45;8.73;;;1.67;;
67965;SDS011;54749;47.850;9.002;2023-03-12T16:03:14;7.50;;;2.50;;
67965;SDS011;54749;47.850;9.002;2023-03-12T16:05:42;6.50;;;2.28;;
67965;SDS011;54749;47.850;9.002;2023-03-12T16:10:48;7.60;;;1.88;;
67965;SDS011;54749;47.850;9.002;2023-03-12T16:13:17;10.53;;;2.63;;
67965;SDS011;54749;47.850;9.002;2023-03-12T16:15:49;9.80;;;2.72;;
67965;SDS011;54749;47.850;9.002;2023-03-12T16:18:18;8.00;;;2.80;;
67965;SDS011;54749;47.850;9.002;2023-03-12T16:20:47;10.63;;;2.13;;
67965;SDS011;54749;47.850;9.002;2023-03-12T16:23:16;12.15;;;2.42;;
67965;SDS011;54749;47.850;9.002;2023-03-12T16:25:45;11.00;;;2.20;;
67965;SDS011;54749;47.850;9.002;2023-03-12T16:28:16;7.95;;;2.50;;
67965;SDS011;54749;47.850;9.002;2023-03-12T16:30:45;9.60;;;2.70;;
67965;SDS011;54749;47.850;9.002;2023-03-12T16:33:13;11.13;;;4.18;;
67965;SDS011;54749;47.850;9.002;2023-03-12T16:35:42;13.20;;;4.95;;
67965;SDS011;54749;47.850;9.002;2023-03-12T16:38:09;15.53;;;4.97;;
67965;SDS011;54749;47.850;9.002;2023-03-12T16:40:37;25.27;;;8.82;;
67965;SDS011;54749;47.850;9.002;2023-03-12T16:43:06;19.63;;;5.95;;
67965;SDS011;54749;47.850;9.002;2023-03-12T16:45:38;17.25;;;7.50;;
67965;SDS011;54749;47.850;9.002;2023-03-12T16:48:12;13.38;;;5.78;;
67965;SDS011;54749;47.850;9.002;2023-03-12T16:50:44;13.03;;;4.97;;
67965;SDS011;54749;47.850;9.002;2023-03-12T16:53:13;12.23;;;2.95;;
67965;SDS011;54749;47.850;9.002;2023-03-12T16:55:54;9.65;;;2.20;;
67965;SDS011;54749;47.850;9.002;2023-03-12T16:58:23;11.20;;;2.42;;
67965;SDS011;54749;47.850;9.002;2023-03-12T17:00:51;12.93;;;3.50;;
67965;SDS011;54749;47.850;9.002;2023-03-12T17:05:54;9.38;;;3.00;;
67965;SDS011;54749;47.850;9.002;2023-03-12T17:08:21;10.02;;;2.95;;
67965;SDS011;54749;47.850;9.002;2023-03-12T17:10:48;7.25;;;1.95;;
67965;SDS011;54749;47.850;9.002;2023-03-12T17:13:19;8.73;;;1.98;;
67965;SDS011;54749;47.850;9.002;2023-03-12T17:15:49;10.37;;;2.50;;
67965;SDS011;54749;47.850;9.002;2023-03-12T17:18:16;11.30;;;3.25;;
67965;SDS011;54749;47.850;9.002;2023-03-12T17:20:45;28.88;;;10.32;;
67965;SDS011;54749;47.850;9.002;2023-03-12T17:23:13;25.50;;;6.78;;